Terminal Aerodrome Forecast
Issued by NWS Goodland, KS

Home | Current Version | Previous Version | Text Only | Print | Product List | Glossary On
Versions: 1 2 3 4 5 6 7 8 9 10 11 12 13 14 15 16 17 18 19 20 21 22
000
FTUS43 KGLD 281720
TAFGLD
TAF
KGLD 281720Z 2818/0118 17011KT 5SM -SN BR OVC015
      TEMPO 2818/2821 2SM -SN BR
     FM010000 14008KT P6SM VCSH SCT015 BKN080
      TEMPO 0103/0107 3SM -SN BR BKN015
     FM010800 VRB04KT P6SM VCSH SCT015 BKN070
      TEMPO 0108/0112 BKN015
     FM011500 32006KT P6SM SCT015 BKN040=

USA.gov is the U.S. government's official web portal to all federal, state and local government web resources and services.